Time;durP1;ratioP1;P1;durP2;ratioP2;P2;SDS_P1;SDS_P2;PMS_P1;PMS_P2;Temp;Humidity;BMP_temperature;BMP_pressure;BME280_temperature;BME280_humidity;BME280_pressure;Samples;Min_cycle;Max_cycle;Signal;HPM_P1;HPM_P2
2023/05/26 00:02:13;;;;;;;;;;;;;;;17.25;100.00;100035.72;5019584;28;20404;-43
2023/05/26 00:04:39;;;;;;;;;;;;;;;16.46;100.00;100041.47;5039028;28;19917;-43
2023/05/26 00:07:04;;;;;;;;;;;;;;;16.10;100.00;100059.34;5038510;28;20274;-43
2023/05/26 00:09:29;;;;;;;;;;;;;;;15.42;100.00;100060.94;5035862;28;19916;-43
2023/05/26 00:11:55;;;;;;;;;;;;;;;15.34;100.00;100063.78;5036492;28;19927;-42
2023/05/26 00:14:20;;;;;;;;;;;;;;;15.63;100.00;100072.31;5038319;28;20456;-43
2023/05/26 00:16:45;;;;;;;;;;;;;;;15.38;100.00;100075.78;5038642;28;19964;-43
2023/05/26 00:19:11;;;;;;;;;;;;;;;16.76;100.00;100037.72;5042121;28;19979;-43
2023/05/26 00:21:38;;;;;;;;;;;;;;;16.66;100.00;100032.91;5040870;28;19931;-42
2023/05/26 00:24:03;;;;;;;;;;;;;;;16.08;100.00;100050.78;5040125;28;19924;-43
2023/05/26 00:26:28;;;;;;;;;;;;;;;15.53;100.00;100070.94;5041533;28;19920;-43
2023/05/26 00:28:53;;;;;;;;;;;;;;;17.02;100.00;100034.94;5041784;28;19921;-43
2023/05/26 00:31:18;;;;;;;;;;;;;;;16.93;100.00;100009.28;5041555;28;19916;-42
2023/05/26 00:33:44;;;;;;;;;;;;;;;17.90;100.00;100002.44;5041469;28;20023;-43
2023/05/26 00:36:09;;;;;;;;;;;;;;;16.77;100.00;100029.03;5041148;28;20015;-42
2023/05/26 00:38:34;;;;;;;;;;;;;;;17.71;100.00;100007.63;5041121;28;20027;-42
2023/05/26 00:40:59;;;;;;;;;;;;;;;17.76;100.00;99995.22;5040989;28;20003;-43
2023/05/26 00:43:25;;;;;;;;;;;;;;;16.77;100.00;100019.47;5023036;28;20037;-43
2023/05/26 00:45:50;;;;;;;;;;;;;;;17.68;100.00;100005.19;5040152;28;19921;-43
2023/05/26 00:48:15;;;;;;;;;;;;;;;18.03;100.00;99990.53;5041312;28;19936;-42
2023/05/26 00:50:41;;;;;;;;;;;;;;;18.28;100.00;99986.78;5041745;28;20489;-43
2023/05/26 00:53:06;;;;;;;;;;;;;;;18.27;100.00;99985.94;5039704;28;20776;-43
2023/05/26 00:55:32;;;;;;;;;;;;;;;18.31;100.00;99973.56;5023506;28;19930;-43
2023/05/26 00:57:57;;;;;;;;;;;;;;;18.32;100.00;99972.69;5023083;28;19921;-43
2023/05/26 01:00:22;;;;;;;;;;;;;;;18.35;100.00;99973.34;5022810;28;19925;-43
2023/05/26 01:02:48;;;;;;;;;;;;;;;18.11;100.00;99979.75;5041015;28;19921;-43
2023/05/26 01:05:15;;;;;;;;;;;;;;;17.71;100.00;100002.41;5041287;28;19925;-43
2023/05/26 01:07:41;;;;;;;;;;;;;;;17.79;100.00;99992.50;5039511;28;20336;-43
2023/05/26 01:10:06;;;;;;;;;;;;;;;17.72;100.00;99997.16;5041733;28;20011;-42
2023/05/26 01:12:36;;;;;;;;;;;;;;;17.53;100.00;100012.75;5022942;28;20310;-42
2023/05/26 01:15:06;;;;;;;;;;;;;;;16.92;100.00;100023.19;5021738;28;19948;-43
2023/05/26 01:17:36;;;;;;;;;;;;;;;17.97;100.00;100009.06;5039143;28;20397;-43
2023/05/26 01:20:08;;;;;;;;;;;;;;;17.97;100.00;100003.84;5020856;28;20011;-43
2023/05/26 01:22:47;;;;;;;;;;;;;;;17.56;100.00;100012.63;5038225;28;19962;-43
2023/05/26 01:25:35;;;;;;;;;;;;;;;17.72;100.00;100001.50;5037889;28;19927;-43
2023/05/26 01:28:00;;;;;;;;;;;;;;;17.88;100.00;99989.50;5038934;28;19987;-43
2023/05/26 01:30:25;;;;;;;;;;;;;;;17.93;100.00;99997.94;5036597;28;19917;-43
2023/05/26 01:32:51;;;;;;;;;;;;;;;17.68;100.00;99997.38;5021026;28;19912;-43
2023/05/26 01:35:16;;;;;;;;;;;;;;;17.67;100.00;100006.91;5038199;28;20095;-43
2023/05/26 01:37:41;;;;;;;;;;;;;;;17.89;100.00;99993.78;5038205;28;20130;-43
2023/05/26 01:40:08;;;;;;;;;;;;;;;17.25;100.00;100020.09;5019945;28;19916;-43
2023/05/26 01:42:34;;;;;;;;;;;;;;;17.26;100.00;100029.56;5038823;28;20683;-44
2023/05/26 01:45:04;;;;;;;;;;;;;;;16.62;100.00;100046.91;5018963;28;20373;-43
2023/05/26 01:47:29;;;;;;;;;;;;;;;17.08;100.00;100032.06;5020378;28;19924;-43
2023/05/26 01:49:54;;;;;;;;;;;;;;;17.28;100.00;100019.94;5038534;28;19917;-43
2023/05/26 01:52:19;;;;;;;;;;;;;;;17.43;100.00;100029.69;5020205;28;19917;-43
2023/05/26 01:54:46;;;;;;;;;;;;;;;17.43;100.00;100014.06;5018738;28;20015;-43
2023/05/26 01:57:11;;;;;;;;;;;;;;;17.44;100.00;100020.97;5019816;28;19927;-43
2023/05/26 01:59:36;;;;;;;;;;;;;;;17.40;100.00;100021.16;5019549;28;19916;-43
2023/05/26 02:02:02;;;;;;;;;;;;;;;17.60;100.00;100015.09;5037810;28;20127;-43
2023/05/26 02:04:27;;;;;;;;;;;;;;;17.68;100.00;100010.38;5037897;28;19923;-43
2023/05/26 02:06:54;;;;;;;;;;;;;;;17.58;100.00;100003.88;5038153;28;19924;-43
2023/05/26 02:09:19;;;;;;;;;;;;;;;17.62;100.00;100015.88;5036931;28;20013;-43
2023/05/26 02:11:45;;;;;;;;;;;;;;;17.60;100.00;100018.53;5037791;28;19955;-43
2023/05/26 02:14:10;;;;;;;;;;;;;;;17.52;100.00;100021.47;5037666;28;20373;-43
2023/05/26 02:16:35;;;;;;;;;;;;;;;17.67;100.00;100021.72;5033703;28;20396;-43
2023/05/26 02:19:01;;;;;;;;;;;;;;;17.56;100.00;100019.56;5036513;28;20027;-43
2023/05/26 02:21:26;;;;;;;;;;;;;;;17.55;100.00;100013.53;5038424;28;20005;-44
2023/05/26 02:23:51;;;;;;;;;;;;;;;17.55;100.00;100013.53;5036865;28;19920;-43
2023/05/26 02:26:17;;;;;;;;;;;;;;;17.41;100.00;100015.91;5037233;28;19927;-43
2023/05/26 02:28:42;;;;;;;;;;;;;;;17.51;100.00;100011.13;5037666;28;20100;-43
2023/05/26 02:31:07;;;;;;;;;;;;;;;17.44;100.00;100010.53;5036101;28;19917;-44
2023/05/26 02:33:33;;;;;;;;;;;;;;;17.39;100.00;100012.50;5037845;28;20309;-43
2023/05/26 02:35:58;;;;;;;;;;;;;;;17.23;100.00;100016.72;5037552;28;19920;-44
2023/05/26 02:38:23;;;;;;;;;;;;;;;16.93;100.00;100019.69;5035612;28;19920;-44
2023/05/26 02:40:49;;;;;;;;;;;;;;;16.89;100.00;100024.16;5037907;28;19916;-44
2023/05/26 02:43:15;;;;;;;;;;;;;;;17.04;100.00;100016.66;5038017;28;19924;-44
2023/05/26 02:45:40;;;;;;;;;;;;;;;17.19;100.00;100020.34;5035411;28;20143;-44
2023/05/26 02:48:05;;;;;;;;;;;;;;;17.15;100.00;100019.63;5037213;28;20008;-44
2023/05/26 02:50:31;;;;;;;;;;;;;;;17.13;100.00;100014.50;5037235;28;20666;-44
2023/05/26 02:52:56;;;;;;;;;;;;;;;17.15;100.00;100030.03;5035113;28;19916;-44
2023/05/26 02:55:24;;;;;;;;;;;;;;;17.04;100.00;100022.69;5037055;28;19984;-44
2023/05/26 02:57:50;;;;;;;;;;;;;;;17.17;100.00;100016.97;5036313;28;20167;-44
2023/05/26 03:00:16;;;;;;;;;;;;;;;17.14;100.00;100020.53;5035850;28;19917;-43
2023/05/26 03:02:41;;;;;;;;;;;;;;;17.17;100.00;100023.00;5036674;28;19917;-43
2023/05/26 03:05:07;;;;;;;;;;;;;;;17.19;100.00;100015.97;5036560;28;19987;-43
2023/05/26 03:07:32;;;;;;;;;;;;;;;17.06;100.00;100018.28;5035536;28;19950;-43
2023/05/26 03:09:57;;;;;;;;;;;;;;;16.97;100.00;100029.06;5035572;28;20145;-43
2023/05/26 03:12:22;;;;;;;;;;;;;;;17.11;100.00;100018.91;5037026;28;20389;-43
2023/05/26 03:14:48;;;;;;;;;;;;;;;17.13;100.00;100019.72;5036625;28;20408;-43
2023/05/26 03:17:13;;;;;;;;;;;;;;;17.17;100.00;100024.78;5036147;28;20393;-43
2023/05/26 03:19:38;;;;;;;;;;;;;;;17.26;100.00;100027.81;5036909;28;19921;-43
2023/05/26 03:22:04;;;;;;;;;;;;;;;17.31;100.00;100031.09;5036406;28;19984;-43
2023/05/26 03:24:29;;;;;;;;;;;;;;;17.22;100.00;100038.44;5036135;28;20657;-43
2023/05/26 03:26:54;;;;;;;;;;;;;;;17.01;100.00;100038.41;5036483;28;19920;-43
2023/05/26 03:29:19;;;;;;;;;;;;;;;17.18;100.00;100039.50;5036131;28;19948;-43
2023/05/26 03:31:45;;;;;;;;;;;;;;;17.40;100.00;100040.22;5034043;28;19920;-43
2023/05/26 03:34:10;;;;;;;;;;;;;;;16.59;100.00;100062.66;5035762;28;20281;-43
2023/05/26 03:36:36;;;;;;;;;;;;;;;17.04;100.00;100048.72;5035177;28;19943;-43
2023/05/26 03:39:03;;;;;;;;;;;;;;;16.98;100.00;100063.75;5036710;28;19974;-43
2023/05/26 03:41:29;;;;;;;;;;;;;;;15.55;100.00;100105.47;5035356;28;19924;-43
2023/05/26 03:43:54;;;;;;;;;;;;;;;16.31;100.00;100088.91;5016940;28;20003;-43
2023/05/26 03:46:19;;;;;;;;;;;;;;;15.77;100.00;100096.06;5034021;28;20437;-43
2023/05/26 03:48:45;;;;;;;;;;;;;;;14.91;100.00;100119.69;5036955;28;20456;-43
2023/05/26 03:51:10;;;;;;;;;;;;;;;14.26;100.00;100132.91;5037635;28;19921;-43
2023/05/26 03:53:36;;;;;;;;;;;;;;;14.05;100.00;100142.13;5021546;28;19912;-43
2023/05/26 03:56:03;;;;;;;;;;;;;;;14.25;100.00;100151.94;5039177;28;19990;-43
2023/05/26 03:58:28;;;;;;;;;;;;;;;14.28;100.00;100152.69;5040797;28;19917;-43
2023/05/26 04:00:55;;;;;;;;;;;;;;;14.12;100.00;100154.88;5038840;28;20015;-43
2023/05/26 04:03:21;;;;;;;;;;;;;;;14.72;100.00;100152.31;5021447;28;19946;-43
2023/05/26 04:05:47;;;;;;;;;;;;;;;14.88;100.00;100137.97;5004771;28;19916;-42
2023/05/26 04:08:12;;;;;;;;;;;;;;;15.10;100.00;100153.72;5040342;28;20014;-43
2023/05/26 04:10:37;;;;;;;;;;;;;;;15.08;100.00;100129.56;5037401;28;19980;-43
2023/05/26 04:13:02;;;;;;;;;;;;;;;15.01;100.00;100138.44;5040594;28;19986;-43
2023/05/26 04:15:27;;;;;;;;;;;;;;;14.84;100.00;100144.13;5021003;28;19964;-43
2023/05/26 04:17:53;;;;;;;;;;;;;;;15.25;100.00;100149.75;5039714;28;20350;-42
2023/05/26 04:20:18;;;;;;;;;;;;;;;15.17;100.00;100149.16;5037061;28;19959;-42
2023/05/26 04:22:43;;;;;;;;;;;;;;;14.93;100.00;100145.59;5039201;28;20006;-43
2023/05/26 04:25:08;;;;;;;;;;;;;;;15.12;100.00;100161.41;5038684;28;19974;-42
2023/05/26 04:27:37;;;;;;;;;;;;;;;14.36;100.00;100176.63;5039648;28;19932;-40
2023/05/26 04:30:04;;;;;;;;;;;;;;;14.94;100.00;100166.31;5037700;28;20425;-40
2023/05/26 04:32:29;;;;;;;;;;;;;;;14.97;100.00;100168.81;5037190;28;19931;-40
2023/05/26 04:34:56;;;;;;;;;;;;;;;14.93;100.00;100162.00;5031141;28;19924;-41
2023/05/26 04:37:21;;;;;;;;;;;;;;;15.43;100.00;100166.47;5035675;28;20304;-40
2023/05/26 04:39:46;;;;;;;;;;;;;;;16.30;100.00;100134.81;5035582;28;19921;-40
2023/05/26 04:42:12;;;;;;;;;;;;;;;15.80;100.00;100144.47;5037680;28;19924;-40
2023/05/26 04:44:38;;;;;;;;;;;;;;;16.64;100.00;100115.34;5036543;28;19916;-41
2023/05/26 04:47:03;;;;;;;;;;;;;;;17.19;100.00;100096.69;5037226;28;20073;-41
2023/05/26 04:49:29;;;;;;;;;;;;;;;17.50;100.00;100078.00;5037948;28;19963;-41
2023/05/26 04:51:58;;;;;;;;;;;;;;;17.61;100.00;100068.84;5018726;28;19924;-41
2023/05/26 04:54:23;;;;;;;;;;;;;;;17.36;100.00;100090.78;5035798;28;20348;-40
2023/05/26 04:56:48;;;;;;;;;;;;;;;17.51;100.00;100084.88;5035493;28;19974;-40
2023/05/26 04:59:14;;;;;;;;;;;;;;;16.61;100.00;100099.84;5037635;28;19935;-41
2023/05/26 05:01:39;;;;;;;;;;;;;;;15.64;100.00;100141.50;5036682;28;19943;-40
2023/05/26 05:04:05;;;;;;;;;;;;;;;14.61;100.00;100170.78;5038002;28;19935;-40
2023/05/26 05:06:30;;;;;;;;;;;;;;;15.18;100.00;100158.63;5037480;28;19917;-40
2023/05/26 05:08:56;;;;;;;;;;;;;;;15.60;100.00;100160.69;5035321;28;19924;-40
2023/05/26 05:11:21;;;;;;;;;;;;;;;15.54;100.00;100163.53;5032199;28;19951;-40
2023/05/26 05:13:46;;;;;;;;;;;;;;;14.34;100.00;100173.22;5036376;28;19917;-40
2023/05/26 05:16:11;;;;;;;;;;;;;;;14.60;100.00;100197.59;5035950;28;20155;-41
2023/05/26 05:18:37;;;;;;;;;;;;;;;15.31;100.00;100191.09;5037142;28;19927;-40
2023/05/26 05:21:02;;;;;;;;;;;;;;;15.93;100.00;100163.06;5037541;28;19925;-40
2023/05/26 05:23:30;;;;;;;;;;;;;;;14.81;100.00;100178.78;5040560;28;20432;-41
2023/05/26 05:25:55;;;;;;;;;;;;;;;15.64;100.00;100190.84;5040786;28;20003;-41
2023/05/26 05:28:21;;;;;;;;;;;;;;;16.25;100.00;100170.53;5039359;28;19927;-41
2023/05/26 05:30:46;;;;;;;;;;;;;;;14.26;100.00;100189.91;5036754;28;19928;-41
2023/05/26 05:33:11;;;;;;;;;;;;;;;15.78;100.00;100183.50;5037096;28;19920;-41
2023/05/26 05:35:36;;;;;;;;;;;;;;;15.47;100.00;100183.66;5037179;28;19931;-41
2023/05/26 05:38:02;;;;;;;;;;;;;;;15.12;100.00;100192.56;5038473;28;19924;-41
2023/05/26 05:40:27;;;;;;;;;;;;;;;15.75;100.00;100199.16;5037903;28;19939;-41
2023/05/26 05:42:53;;;;;;;;;;;;;;;13.42;100.00;100236.97;5038491;28;20400;-41
2023/05/26 05:45:18;;;;;;;;;;;;;;;14.66;100.00;100238.88;5037135;28;19917;-41
2023/05/26 05:47:43;;;;;;;;;;;;;;;16.05;100.00;100218.03;5037941;28;19992;-40
2023/05/26 05:50:09;;;;;;;;;;;;;;;14.25;100.00;100229.66;5037697;28;19944;-41
2023/05/26 05:52:34;;;;;;;;;;;;;;;14.48;100.00;100237.63;5037099;28;19921;-41
2023/05/26 05:54:59;;;;;;;;;;;;;;;14.91;100.00;100241.59;5036958;28;20413;-41
2023/05/26 05:57:24;;;;;;;;;;;;;;;13.91;100.00;100262.50;5019268;28;19928;-41
2023/05/26 05:59:50;;;;;;;;;;;;;;;13.89;100.00;100266.00;5036929;28;19995;-41
2023/05/26 06:02:15;;;;;;;;;;;;;;;14.21;100.00;100273.78;5036994;28;19963;-41
2023/05/26 06:04:40;;;;;;;;;;;;;;;15.77;100.00;100248.47;5037903;28;19956;-41
2023/05/26 06:07:05;;;;;;;;;;;;;;;15.47;100.00;100230.38;5035679;28;19927;-41
2023/05/26 06:09:30;;;;;;;;;;;;;;;14.42;100.00;100248.19;5034669;28;20091;-39
2023/05/26 06:11:56;;;;;;;;;;;;;;;15.68;100.00;100218.44;5036448;28;19916;-40
2023/05/26 06:14:21;;;;;;;;;;;;;;;15.25;100.00;100240.56;5018477;28;19979;-39
2023/05/26 06:16:46;;;;;;;;;;;;;;;16.98;100.00;100218.13;5035781;28;20181;-40
2023/05/26 06:19:11;;;;;;;;;;;;;;;14.13;100.00;100231.69;5037971;28;19925;-39
2023/05/26 06:21:37;;;;;;;;;;;;;;;14.83;100.00;100253.97;5036283;28;20401;-40
2023/05/26 06:24:02;;;;;;;;;;;;;;;15.59;100.00;100234.31;5037139;28;19978;-39
2023/05/26 06:26:27;;;;;;;;;;;;;;;13.71;100.00;100264.75;5036734;28;20031;-40
2023/05/26 06:28:53;;;;;;;;;;;;;;;14.72;100.00;100287.13;5036753;28;19939;-40
2023/05/26 06:31:18;;;;;;;;;;;;;;;14.51;100.00;100273.84;5036357;28;19960;-39
2023/05/26 06:33:43;;;;;;;;;;;;;;;15.29;100.00;100272.50;5036995;28;19923;-40
2023/05/26 06:36:09;;;;;;;;;;;;;;;16.39;100.00;100232.44;5017754;28;20007;-40
2023/05/26 06:38:34;;;;;;;;;;;;;;;15.80;100.00;100212.00;5019847;28;19943;-39
2023/05/26 06:41:00;;;;;;;;;;;;;;;13.93;100.00;100258.09;5039204;28;19923;-39
2023/05/26 06:43:25;;;;;;;;;;;;;;;14.95;100.00;100251.00;5038430;28;19921;-39
2023/05/26 06:45:50;;;;;;;;;;;;;;;14.58;100.00;100269.38;5038259;28;19971;-39
2023/05/26 06:48:15;;;;;;;;;;;;;;;15.44;100.00;100257.28;5037777;28;19921;-39
2023/05/26 06:50:41;;;;;;;;;;;;;;;14.69;100.00;100248.31;5039820;28;19919;-39
2023/05/26 06:53:06;;;;;;;;;;;;;;;14.94;100.00;100271.78;5037697;28;19916;-39
2023/05/26 06:55:31;;;;;;;;;;;;;;;14.49;100.00;100283.41;5039644;28;19917;-39
2023/05/26 06:57:57;;;;;;;;;;;;;;;16.31;100.00;100271.72;5038371;28;19986;-39
2023/05/26 07:00:22;;;;;;;;;;;;;;;15.07;100.00;100252.38;5038199;28;20009;-39
2023/05/26 07:02:47;;;;;;;;;;;;;;;15.90;100.00;100239.38;5039259;28;19917;-39
2023/05/26 07:05:12;;;;;;;;;;;;;;;16.39;100.00;100219.44;5039087;28;19935;-39
2023/05/26 07:07:38;;;;;;;;;;;;;;;15.43;100.00;100240.00;5037301;28;19929;-39
2023/05/26 07:10:03;;;;;;;;;;;;;;;15.75;100.00;100255.47;5036806;28;19924;-39
2023/05/26 07:12:28;;;;;;;;;;;;;;;16.20;100.00;100237.44;5040056;28;19927;-39
2023/05/26 07:14:53;;;;;;;;;;;;;;;15.22;100.00;100251.06;5035874;28;20377;-39
2023/05/26 07:17:19;;;;;;;;;;;;;;;16.20;100.00;100252.19;5038434;28;20630;-39
2023/05/26 07:19:44;;;;;;;;;;;;;;;15.99;100.00;100246.00;5038319;28;19967;-39
2023/05/26 07:22:09;;;;;;;;;;;;;;;16.41;100.00;100263.59;5037766;28;19920;-39
2023/05/26 07:24:34;;;;;;;;;;;;;;;17.89;100.00;100217.06;5020355;28;19924;-39
2023/05/26 07:27:00;;;;;;;;;;;;;;;17.09;100.00;100226.34;5039238;28;19917;-39
2023/05/26 07:29:25;;;;;;;;;;;;;;;14.79;100.00;100263.56;5035900;28;20314;-39
2023/05/26 07:31:50;;;;;;;;;;;;;;;15.59;100.00;100271.50;5038290;28;19917;-39
2023/05/26 07:34:16;;;;;;;;;;;;;;;16.35;100.00;100253.41;5039373;28;20393;-39
2023/05/26 07:36:41;;;;;;;;;;;;;;;15.91;100.00;100263.59;5038348;28;20336;-39
2023/05/26 07:39:06;;;;;;;;;;;;;;;16.85;100.00;100222.09;5038405;28;19921;-39
2023/05/26 07:41:32;;;;;;;;;;;;;;;15.19;100.00;100267.59;5037650;28;19952;-39
2023/05/26 07:43:57;;;;;;;;;;;;;;;15.74;100.00;100280.59;5039333;28;19978;-39
2023/05/26 07:46:22;;;;;;;;;;;;;;;14.93;100.00;100301.22;5036147;28;20590;-39
2023/05/26 07:48:48;;;;;;;;;;;;;;;16.13;100.00;100282.75;5037573;28;19924;-39
2023/05/26 07:51:13;;;;;;;;;;;;;;;14.72;100.00;100303.53;5038961;28;19924;-39
2023/05/26 07:53:39;;;;;;;;;;;;;;;16.60;100.00;100269.78;5019330;28;19917;-39
2023/05/26 07:56:04;;;;;;;;;;;;;;;16.27;100.00;100256.28;5037644;28;19917;-39
2023/05/26 07:58:29;;;;;;;;;;;;;;;16.96;100.00;100242.50;5037433;28;20475;-39
2023/05/26 08:00:55;;;;;;;;;;;;;;;17.57;100.00;100232.25;5037059;28;19916;-39
2023/05/26 08:03:20;;;;;;;;;;;;;;;17.50;100.00;100208.22;5037744;28;19920;-39
2023/05/26 08:05:45;;;;;;;;;;;;;;;16.06;100.00;100252.69;5037246;28;20305;-39
2023/05/26 08:08:10;;;;;;;;;;;;;;;15.87;100.00;100263.72;5036683;28;19960;-39
2023/05/26 08:10:36;;;;;;;;;;;;;;;16.80;100.00;100263.91;5034517;28;19921;-39
2023/05/26 08:13:01;;;;;;;;;;;;;;;17.03;100.00;100250.00;5037386;28;19952;-39
2023/05/26 08:15:26;;;;;;;;;;;;;;;16.71;100.00;100243.41;5034904;28;19975;-41
2023/05/26 08:17:52;;;;;;;;;;;;;;;17.59;100.00;100219.19;5037144;28;19917;-41
2023/05/26 08:20:17;;;;;;;;;;;;;;;17.19;100.00;100229.44;5038337;28;19917;-41
2023/05/26 08:22:42;;;;;;;;;;;;;;;18.11;100.00;100196.13;5037982;28;19921;-41
2023/05/26 08:25:08;;;;;;;;;;;;;;;16.91;100.00;100211.47;5037784;28;19955;-41
2023/05/26 08:27:33;;;;;;;;;;;;;;;16.98;100.00;100210.31;5036121;28;19935;-41
2023/05/26 08:29:58;;;;;;;;;;;;;;;18.77;100.00;100183.59;5037434;28;20789;-41
2023/05/26 08:32:24;;;;;;;;;;;;;;;17.88;100.00;100177.13;5038511;28;20354;-41
2023/05/26 08:34:49;;;;;;;;;;;;;;;18.95;100.00;100170.56;5037002;28;19920;-41
2023/05/26 08:37:15;;;;;;;;;;;;;;;19.15;100.00;100167.00;5021756;28;20004;-41
2023/05/26 08:39:41;;;;;;;;;;;;;;;17.97;100.00;100208.00;5023855;28;19917;-41
2023/05/26 08:42:06;;;;;;;;;;;;;;;19.35;100.00;100166.03;5041944;28;19912;-41
2023/05/26 08:44:35;;;;;;;;;;;;;;;19.04;100.00;100175.34;5037926;28;20385;-41
2023/05/26 08:47:01;;;;;;;;;;;;;;;20.20;100.00;100167.78;5038994;28;19921;-41
2023/05/26 08:49:27;;;;;;;;;;;;;;;18.46;100.00;100205.00;5021958;28;19924;-41
2023/05/26 08:51:58;;;;;;;;;;;;;;;17.64;100.00;100199.00;5022443;28;20396;-41
2023/05/26 08:54:24;;;;;;;;;;;;;;;20.06;100.00;100142.38;5040111;28;20019;-41
2023/05/26 08:56:49;;;;;;;;;;;;;;;20.89;100.00;100120.38;5040549;28;20007;-41
2023/05/26 08:59:15;;;;;;;;;;;;;;;20.53;100.00;100141.56;5040290;28;19942;-41
2023/05/26 09:01:40;;;;;;;;;;;;;;;18.08;100.00;100193.66;5020667;28;19959;-43
2023/05/26 09:04:05;;;;;;;;;;;;;;;19.71;100.00;100170.34;5041596;28;19996;-41
2023/05/26 09:06:31;;;;;;;;;;;;;;;21.53;100.00;100104.50;5039237;28;19928;-41
2023/05/26 09:08:56;;;;;;;;;;;;;;;21.37;100.00;100108.91;5022389;28;19925;-41
2023/05/26 09:11:22;;;;;;;;;;;;;;;20.73;100.00;100140.47;5038431;28;20109;-41
2023/05/26 09:13:52;;;;;;;;;;;;;;;22.12;100.00;100107.88;5040740;28;20305;-41
2023/05/26 09:16:17;;;;;;;;;;;;;;;20.33;100.00;100142.66;5039561;28;19917;-41
2023/05/26 09:18:42;;;;;;;;;;;;;;;19.95;100.00;100142.91;5022684;28;19928;-41
2023/05/26 09:21:07;;;;;;;;;;;;;;;20.64;100.00;100148.84;5040923;28;19917;-41
2023/05/26 09:23:33;;;;;;;;;;;;;;;21.02;100.00;100158.94;5021624;28;19974;-43
2023/05/26 09:25:58;;;;;;;;;;;;;;;23.39;100.00;100085.63;5039770;28;19920;-42
2023/05/26 09:28:25;;;;;;;;;;;;;;;22.59;98.32;100110.22;5039929;28;20146;-42
2023/05/26 09:30:50;;;;;;;;;;;;;;;21.37;99.95;100132.47;5040646;28;19920;-42
2023/05/26 09:33:16;;;;;;;;;;;;;;;21.58;95.62;100102.44;5039480;28;19917;-42
2023/05/26 09:35:42;;;;;;;;;;;;;;;21.66;98.37;100126.38;5040636;28;19916;-42
2023/05/26 09:38:08;;;;;;;;;;;;;;;21.61;100.00;100145.97;5039370;28;19917;-42
2023/05/26 09:40:34;;;;;;;;;;;;;;;20.71;100.00;100168.53;5039817;28;20297;-42
2023/05/26 09:43:00;;;;;;;;;;;;;;;21.98;100.00;100128.84;5022415;28;20062;-42
2023/05/26 09:45:25;;;;;;;;;;;;;;;21.05;100.00;100140.44;5020203;28;20274;-42
2023/05/26 09:47:55;;;;;;;;;;;;;;;21.58;100.00;100133.88;5039377;28;19921;-42
2023/05/26 09:50:20;;;;;;;;;;;;;;;20.98;99.95;100124.25;5041015;28;19916;-42
2023/05/26 09:52:45;;;;;;;;;;;;;;;22.08;100.00;100129.97;5039363;28;19923;-42
2023/05/26 09:55:10;;;;;;;;;;;;;;;24.71;92.72;100059.72;5021286;28;19916;-41
2023/05/26 09:57:36;;;;;;;;;;;;;;;23.47;94.15;100098.28;5038550;28;19916;-42
2023/05/26 10:00:02;;;;;;;;;;;;;;;22.07;93.25;100104.66;5021110;28;19912;-42
2023/05/26 10:02:27;;;;;;;;;;;;;;;20.98;99.69;100154.81;5039465;28;19917;-42
2023/05/26 10:04:53;;;;;;;;;;;;;;;22.97;95.53;100100.69;5021757;28;20056;-42
2023/05/26 10:07:18;;;;;;;;;;;;;;;21.84;92.29;100106.09;5038932;28;19916;-42
2023/05/26 10:09:51;;;;;;;;;;;;;;;21.77;98.96;100148.50;5036748;28;19927;-42
2023/05/26 10:12:16;;;;;;;;;;;;;;;24.38;88.96;100062.97;5039619;28;19921;-42
2023/05/26 10:14:41;;;;;;;;;;;;;;;21.66;93.66;100125.56;5020237;28;19927;-42
2023/05/26 10:17:06;;;;;;;;;;;;;;;19.88;100.00;100172.94;5038875;28;19917;-42
2023/05/26 10:19:32;;;;;;;;;;;;;;;19.76;100.00;100190.09;5019692;28;20413;-42
2023/05/26 10:21:59;;;;;;;;;;;;;;;20.95;100.00;100160.25;5004957;28;20350;-42
2023/05/26 10:24:25;;;;;;;;;;;;;;;21.37;100.00;100125.50;5021424;28;20493;-43
2023/05/26 10:26:54;;;;;;;;;;;;;;;24.63;92.78;100062.91;5021068;28;19973;-42
2023/05/26 10:29:21;;;;;;;;;;;;;;;21.71;97.42;100128.72;5020922;28;19925;-43
2023/05/26 10:31:47;;;;;;;;;;;;;;;22.80;96.54;100102.75;5019576;28;19921;-42
2023/05/26 10:34:12;;;;;;;;;;;;;;;19.41;100.00;100176.19;5038269;28;19917;-42
2023/05/26 10:36:38;;;;;;;;;;;;;;;20.82;100.00;100139.13;5038167;28;20555;-43
2023/05/26 10:39:08;;;;;;;;;;;;;;;19.96;100.00;100176.00;5021148;28;19959;-42
2023/05/26 10:41:34;;;;;;;;;;;;;;;19.70;100.00;100179.09;5038820;28;19920;-43
2023/05/26 10:44:00;;;;;;;;;;;;;;;19.36;100.00;100165.09;5037889;28;19921;-41
2023/05/26 10:46:44;;;;;;;;;;;;;;;19.37;100.00;100164.19;5036777;28;19927;-53
2023/05/26 10:49:22;;;;;;;;;;;;;;;23.67;100.00;100073.22;5038693;28;20408;-43
2023/05/26 10:51:54;;;;;;;;;;;;;;;21.74;95.77;100098.88;5036995;28;20028;-44
2023/05/26 10:54:21;;;;;;;;;;;;;;;24.12;92.11;100056.97;5037676;28;20015;-43
2023/05/26 10:56:48;;;;;;;;;;;;;;;25.07;91.91;100062.34;5018928;28;19932;-44
2023/05/26 10:59:32;;;;;;;;;;;;;;;24.82;83.93;100029.94;5019607;28;19920;-43
2023/05/26 11:02:04;;;;;;;;;;;;;;;22.95;88.16;100080.72;5035062;28;19998;-44
2023/05/26 11:04:42;;;;;;;;;;;;;;;24.36;86.47;100059.66;5033742;28;19921;-44
2023/05/26 11:07:37;;;;;;;;;;;;;;;22.59;86.91;100073.47;5017957;28;19921;-44
2023/05/26 11:10:05;;;;;;;;;;;;;;;23.30;92.91;100081.00;5018064;28;19921;-43
2023/05/26 11:12:34;;;;;;;;;;;;;;;23.22;89.54;100070.19;5030826;28;19927;-44
2023/05/26 11:15:19;;;;;;;;;;;;;;;26.39;83.26;100018.56;5037484;28;19921;-44
2023/05/26 11:17:44;;;;;;;;;;;;;;;24.68;87.36;100048.53;5038685;28;20465;-44
2023/05/26 11:20:14;;;;;;;;;;;;;;;24.55;82.89;100033.66;5038349;28;20008;-44
2023/05/26 11:22:41;;;;;;;;;;;;;;;22.52;88.62;100084.34;5035233;28;20272;-44
2023/05/26 11:25:07;;;;;;;;;;;;;;;22.09;96.25;100134.28;5037077;28;19998;-44
2023/05/26 11:27:32;;;;;;;;;;;;;;;21.95;96.72;100110.69;5018079;28;19924;-44
2023/05/26 11:29:58;;;;;;;;;;;;;;;24.68;88.85;100044.13;5036677;28;19924;-44
2023/05/26 11:32:23;;;;;;;;;;;;;;;;;;5035133;28;19928;-44
2023/05/26 11:34:48;;;;;;;;;;;;;;;24.41;87.11;100057.50;5037228;28;19924;-44
2023/05/26 11:37:13;;;;;;;;;;;;;;;23.61;88.43;100072.84;5019556;28;19921;-44
2023/05/26 11:39:39;;;;;;;;;;;;;;;22.33;86.28;100063.72;5018402;28;21111;-44
2023/05/26 11:42:10;;;;;;;;;;;;;;;24.87;89.34;100056.78;5037536;28;19921;-43
2023/05/26 11:44:36;;;;;;;;;;;;;;;22.72;87.36;100079.63;5034786;28;19921;-44
2023/05/26 11:47:01;;;;;;;;;;;;;;;25.43;83.43;100032.34;5033822;28;19967;-41
2023/05/26 11:49:26;;;;;;;;;;;;;;;24.97;78.91;100015.59;5037581;28;19972;-41
2023/05/26 11:51:52;;;;;;;;;;;;;;;24.83;84.05;100047.41;5017142;28;20413;-41
2023/05/26 11:54:17;;;;;;;;;;;;;;;25.61;80.23;100024.78;5036289;28;20501;-42
2023/05/26 11:56:44;;;;;;;;;;;;;;;23.77;84.73;100063.78;5036599;28;19932;-41
2023/05/26 11:59:09;;;;;;;;;;;;;;;25.74;84.70;100038.69;5015554;28;20705;-41
2023/05/26 12:01:34;;;;;;;;;;;;;;;24.97;83.50;100049.84;5035464;28;19926;-41
2023/05/26 12:04:00;;;;;;;;;;;;;;;25.91;80.80;100023.34;5018267;28;19924;-41
2023/05/26 12:06:27;;;;;;;;;;;;;;;24.29;84.66;100069.78;5036562;28;19916;-41
2023/05/26 12:09:02;;;;;;;;;;;;;;;24.56;86.38;100056.44;5034313;28;19925;-41
2023/05/26 12:11:34;;;;;;;;;;;;;;;23.89;90.64;100077.88;5033824;28;20293;-41
2023/05/26 12:14:01;;;;;;;;;;;;;;;23.41;90.37;100071.56;5040367;28;19925;-41
2023/05/26 12:16:36;;;;;;;;;;;;;;;24.51;88.75;100055.06;5037123;28;19916;-41
2023/05/26 12:19:02;;;;;;;;;;;;;;;23.56;85.31;100055.56;5040819;28;19924;-41
2023/05/26 12:21:28;;;;;;;;;;;;;;;25.21;85.51;100035.81;5040448;28;19921;-42
2023/05/26 12:23:53;;;;;;;;;;;;;;;25.13;84.55;100040.78;5023670;28;19921;-41
2023/05/26 12:26:23;;;;;;;;;;;;;;;24.82;82.84;100037.84;5022595;28;19917;-41